Check out our new PWSWeather beta!
PWSweather.com
Personal Weather Stations
Station Observations
MFGBD
Tower Mfg , BavendorfDE

Tower Mfg BavendorfDE

Lat: 47.752282, Lon: 9.549614

Elevation: 1525

Station Type: Wounder Weather Station

High Low Average
Temperature 54.6°F12.6°C 38.1°F3.4°C 44.6°F7.0°C
Dew Point 44.9°F7.2°C 36.9°F2.7°C 40.8°F4.9°C
Winds 14.6 mph 23.5 kmh Calm Calm 6.0 mph SSW9.7 kmh SSW
Wind Gusts 25.3 mph40.7 kmh -- 12.0 mph19.3 kmh
Humidity 99% 65% 87%
Pressure 29.83 in1010.2 mb 29.52 in999.7 mb -
Precipitation 0.03 in0.8 mm - -
Hour Temp Dew Point Humidity Winds Wind Gusts Pressure Precip Precip Rate Daily Precip Total
12:24 AM 42.8°F6.0°C 42.6°F5.9°C 99% 4.5 mph S7.2 kmh S 6.5 mph10.5 kmh 29.83 in1010.2 mb 0.00 in0.0 mm 0.00 in0.0 mm 0.00 in0.0 mm
12:54 AM 43.3°F6.3°C 42.4°F5.8°C 96% 4.8 mph S7.7 kmh S 7.8 mph12.6 kmh 29.81 in1009.5 mb 0.00 in0.0 mm 0.00 in0.0 mm 0.00 in0.0 mm
01:24 AM 42.9°F6.1°C 41.5°F5.3°C 94% 2.6 mph SW4.2 kmh SW 4.0 mph6.4 kmh 29.80 in1009.1 mb 0.00 in0.0 mm 0.00 in0.0 mm 0.00 in0.0 mm
01:54 AM 41.9°F5.5°C 39.8°F4.3°C 92% 0.3 mph SSW0.5 kmh SSW 4.6 mph7.4 kmh 29.78 in1008.5 mb 0.00 in0.0 mm 0.00 in0.0 mm 0.00 in0.0 mm
02:24 AM 41.1°F5.1°C 39.6°F4.2°C 94% 0.9 mph SSE1.4 kmh SSE 3.1 mph5.0 kmh 29.77 in1008.1 mb 0.00 in0.0 mm 0.00 in0.0 mm 0.00 in0.0 mm
02:54 AM 39.2°F4.0°C 37.3°F2.9°C 92% Calm Calm -- 29.76 in1007.8 mb 0.00 in0.0 mm 0.00 in0.0 mm 0.00 in0.0 mm
03:24 AM 39.3°F4.1°C 37.9°F3.3°C 94% Calm Calm -- 29.75 in1007.5 mb 0.00 in0.0 mm 0.00 in0.0 mm 0.00 in0.0 mm
03:54 AM 38.1°F3.4°C 37.1°F2.8°C 96% Calm Calm -- 29.74 in1007.1 mb 0.00 in0.0 mm 0.00 in0.0 mm 0.00 in0.0 mm
04:24 AM 38.4°F3.6°C 37.4°F3.0°C 96% 3.2 mph WNW5.1 kmh WNW 4.0 mph6.4 kmh 29.73 in1006.8 mb 0.00 in0.0 mm 0.00 in0.0 mm 0.00 in0.0 mm
04:54 AM 40.1°F4.5°C 38.8°F3.8°C 95% Calm Calm 1.2 mph1.9 kmh 29.73 in1006.8 mb 0.00 in0.0 mm 0.00 in0.0 mm 0.00 in0.0 mm
05:24 AM 42.8°F6.0°C 41.0°F5.0°C 93% 2.8 mph S4.5 kmh S 6.8 mph10.9 kmh 29.74 in1007.1 mb 0.00 in0.0 mm 0.00 in0.0 mm 0.00 in0.0 mm
05:54 AM 41.7°F5.4°C 39.1°F3.9°C 90% 4.3 mph SSW6.9 kmh SSW 7.1 mph11.4 kmh 29.73 in1006.8 mb 0.00 in0.0 mm 0.00 in0.0 mm 0.00 in0.0 mm
06:24 AM 41.5°F5.3°C 38.9°F3.8°C 90% 1.5 mph S2.4 kmh S 5.0 mph8.0 kmh 29.72 in1006.4 mb 0.00 in0.0 mm 0.00 in0.0 mm 0.00 in0.0 mm
06:54 AM 39.9°F4.4°C 37.2°F2.9°C 89% Calm Calm -- 29.72 in1006.4 mb 0.00 in0.0 mm 0.00 in0.0 mm 0.00 in0.0 mm
07:24 AM 39.7°F4.3°C 36.9°F2.7°C 89% Calm Calm -- 29.71 in1006.1 mb 0.00 in0.0 mm 0.00 in0.0 mm 0.00 in0.0 mm
07:54 AM 40.2°F4.6°C 37.5°F3.1°C 89% Calm Calm -- 29.72 in1006.4 mb 0.00 in0.0 mm 0.00 in0.0 mm 0.00 in0.0 mm
08:24 AM 42.4°F5.8°C 39.0°F3.9°C 87% Calm Calm -- 29.72 in1006.4 mb 0.00 in0.0 mm 0.00 in0.0 mm 0.00 in0.0 mm
08:55 AM 49.1°F9.5°C 42.5°F5.8°C 78% 2.7 mph SW4.3 kmh SW 5.0 mph8.0 kmh 29.72 in1006.4 mb 0.00 in0.0 mm 0.00 in0.0 mm 0.00 in0.0 mm
09:24 AM 50.0°F10.0°C 41.1°F5.1°C 71% 5.2 mph SW8.4 kmh SW 10.3 mph16.6 kmh 29.72 in1006.4 mb 0.00 in0.0 mm 0.00 in0.0 mm 0.00 in0.0 mm
09:54 AM 50.5°F10.3°C 41.6°F5.3°C 71% 2.6 mph SW4.2 kmh SW 10.3 mph16.6 kmh 29.71 in1006.1 mb 0.00 in0.0 mm 0.00 in0.0 mm 0.00 in0.0 mm
10:24 AM 51.8°F11.0°C 41.7°F5.4°C 68% 8.3 mph SW13.4 kmh SW 15.6 mph25.1 kmh 29.70 in1005.8 mb 0.00 in0.0 mm 0.00 in0.0 mm 0.00 in0.0 mm
10:54 AM 52.3°F11.3°C 41.9°F5.5°C 67% 4.8 mph SW7.7 kmh SW 11.5 mph18.5 kmh 29.69 in1005.4 mb 0.00 in0.0 mm 0.00 in0.0 mm 0.00 in0.0 mm
11:24 AM 54.6°F12.6°C 43.3°F6.3°C 65% 7.9 mph S12.7 kmh S 16.2 mph26.1 kmh 29.69 in1005.4 mb 0.00 in0.0 mm 0.00 in0.0 mm 0.00 in0.0 mm
11:37 AM 53.9°F12.2°C 42.4°F5.8°C 65% 10.1 mph SSW16.3 kmh SSW 18.1 mph29.1 kmh 29.69 in1005.4 mb 0.00 in0.0 mm 0.00 in0.0 mm 0.00 in0.0 mm
12:07 PM 53.2°F11.8°C 42.0°F5.6°C 65% 7.3 mph SW11.7 kmh SW 14.0 mph22.5 kmh 29.69 in1005.4 mb 0.00 in0.0 mm 0.00 in0.0 mm 0.00 in0.0 mm
12:37 PM 51.6°F10.9°C 41.9°F5.5°C 69% 7.0 mph WSW11.3 kmh WSW 18.4 mph29.6 kmh 29.68 in1005.1 mb 0.00 in0.0 mm 0.00 in0.0 mm 0.00 in0.0 mm
01:07 PM 52.5°F11.4°C 43.6°F6.4°C 71% 11.4 mph SW18.3 kmh SW 18.1 mph29.1 kmh 29.67 in1004.7 mb 0.00 in0.0 mm 0.00 in0.0 mm 0.00 in0.0 mm
01:37 PM 51.0°F10.6°C 43.8°F6.6°C 76% 7.9 mph WSW12.7 kmh WSW 20.9 mph33.6 kmh 29.65 in1004.1 mb 0.00 in0.0 mm 0.00 in0.0 mm 0.00 in0.0 mm
02:07 PM 48.0°F8.9°C 42.6°F5.9°C 81% 10.6 mph WSW17.1 kmh WSW 20.9 mph33.6 kmh 29.66 in1004.4 mb 0.00 in0.0 mm 0.00 in0.0 mm 0.00 in0.0 mm
02:37 PM 48.0°F8.9°C 44.9°F7.2°C 89% 8.5 mph WSW13.7 kmh WSW 14.6 mph23.5 kmh 29.64 in1003.7 mb 0.00 in0.0 mm 0.00 in0.0 mm 0.00 in0.0 mm
04:37 PM 45.3°F7.4°C 43.6°F6.4°C 93% 11.4 mph SW18.3 kmh SW 19.3 mph31.1 kmh 29.61 in1002.7 mb 0.02 in0.5 mm 0.00 in0.0 mm 0.03 in0.8 mm
05:07 PM 46.0°F7.8°C 43.8°F6.6°C 92% 14.6 mph SW23.5 kmh SW 19.0 mph30.6 kmh 29.60 in1002.4 mb 0.01 in0.3 mm 0.00 in0.0 mm 0.03 in0.8 mm
05:37 PM 45.8°F7.7°C 43.5°F6.4°C 91% 10.3 mph SW16.6 kmh SW 21.2 mph34.1 kmh 29.59 in1002.0 mb 0.00 in0.0 mm 0.00 in0.0 mm 0.03 in0.8 mm
06:07 PM 43.5°F6.4°C 41.5°F5.3°C 92% 11.6 mph SSW18.7 kmh SSW 21.5 mph34.6 kmh 29.58 in1001.7 mb 0.00 in0.0 mm 0.00 in0.0 mm 0.03 in0.8 mm
06:37 PM 43.1°F6.2°C 41.4°F5.2°C 93% 11.6 mph SSW18.7 kmh SSW 18.4 mph29.6 kmh 29.58 in1001.7 mb 0.00 in0.0 mm 0.00 in0.0 mm 0.03 in0.8 mm
07:07 PM 43.1°F6.2°C 41.4°F5.2°C 93% 8.8 mph SSW14.2 kmh SSW 15.3 mph24.6 kmh 29.58 in1001.7 mb 0.00 in0.0 mm 0.00 in0.0 mm 0.03 in0.8 mm
07:37 PM 43.7°F6.5°C 42.3°F5.7°C 94% 11.0 mph SW17.7 kmh SW 20.6 mph33.2 kmh 29.58 in1001.7 mb 0.00 in0.0 mm 0.00 in0.0 mm 0.03 in0.8 mm
08:07 PM 43.1°F6.2°C 41.5°F5.3°C 93% 10.5 mph SW16.9 kmh SW 16.8 mph27.0 kmh 29.57 in1001.4 mb 0.00 in0.0 mm 0.00 in0.0 mm 0.03 in0.8 mm
08:37 PM 41.7°F5.4°C 40.7°F4.8°C 96% 10.7 mph SSW17.2 kmh SSW 14.6 mph23.5 kmh 29.55 in1000.7 mb 0.00 in0.0 mm 0.00 in0.0 mm 0.03 in0.8 mm
09:07 PM 42.2°F5.7°C 41.6°F5.3°C 97% 8.7 mph SSW14.0 kmh SSW 13.4 mph21.6 kmh 29.54 in1000.3 mb 0.00 in0.0 mm 0.00 in0.0 mm 0.03 in0.8 mm
09:37 PM 43.1°F6.2°C 42.4°F5.8°C 97% 9.8 mph SW15.8 kmh SW 25.0 mph40.2 kmh 29.53 in1000.0 mb 0.00 in0.0 mm 0.00 in0.0 mm 0.03 in0.8 mm
10:07 PM 42.0°F5.6°C 39.9°F4.4°C 92% 13.6 mph SW21.9 kmh SW 25.3 mph40.7 kmh 29.54 in1000.3 mb 0.00 in0.0 mm 0.00 in0.0 mm 0.03 in0.8 mm
10:37 PM 41.1°F5.1°C 39.2°F4.0°C 92% 9.8 mph SW15.8 kmh SW 15.6 mph25.1 kmh 29.52 in999.7 mb 0.00 in0.0 mm 0.00 in0.0 mm 0.03 in0.8 mm
11:07 PM 40.6°F4.8°C 39.0°F3.9°C 93% 12.3 mph SSW19.8 kmh SSW 15.3 mph24.6 kmh 29.53 in1000.0 mb 0.00 in0.0 mm 0.00 in0.0 mm 0.03 in0.8 mm
11:37 PM 40.1°F4.5°C 38.9°F3.8°C 95% 11.0 mph SSW17.7 kmh SSW 16.5 mph26.6 kmh 29.52 in999.7 mb 0.00 in0.0 mm 0.00 in0.0 mm 0.03 in0.8 mm